Latest Coastal Weather Observations for Gove Airport

IDD60701

Issued at 2:01 am CST Sunday 21 December 2014 (issued every 10 minutes, with the page automatically refreshed every 10 minutes)

About coastal observations | Map of coastal stations | Coastal observations for NT | Marine services | Other Formats
Station Details ID: 014508 Name: GOVE AIRPORT Lat: -12.27 Lon: 136.82 Height: 51.6 m
Data from the previous 72 hours. | See also: Recent months at Gove Airport
Date/Time
CST
Temp

°C
Wind Pressure Rain
since 9am
mm
Weather Cloud Vis
km
Sea
Height
m
Swell
Dir
 
Speed
knots
Gust
knots
hPa Trend Height
m
Period
s
Dir
21/02:00am 28.0 N 5 6 1008.6 - 0.0 - - 10 - - - -
21/01:30am 26.8 N 3 4 1009.0 - 0.0 - - 10 - - - -
21/01:00am 27.0 N 3 5 1009.3 - 0.0 - - 10 - - - -
21/12:30am 26.9 N 3 5 1009.2 - 0.0 - - 10 - - - -
21/12:00am 28.2 N 3 4 1008.9 - 0.0 - - 10 - - - -
 
Date/Time
CST
Temp

°C
Wind Pressure Rain
since 9am
mm
Weather Cloud Vis
km
Sea
Height
m
Swell
Dir
 
Speed
knots
Gust
knots
hPa Trend Height
m
Period
s
Dir
20/11:30pm 28.6 NNE 3 4 1009.4 - 0.0 - - 10 - - - -
20/11:00pm 28.6 NNE 5 6 1009.4 - 0.0 - - 10 - - - -
20/10:30pm 28.8 N 3 4 1009.4 - 0.0 - - 10 - - - -
20/10:00pm 28.8 N 4 6 1008.9 - 0.0 - - 10 - - - -
20/09:30pm 28.8 N 4 6 1008.3 - 0.0 - - 10 - - - -
20/09:00pm 28.9 NNE 5 6 1007.5 - 0.0 - - 10 - - - -
20/08:30pm 29.1 N 3 4 1007.8 - 0.0 - - 10 - - - -
20/08:00pm 29.3 NNE 5 6 1007.6 - 0.0 - - 10 - - - -
20/07:30pm 29.5 NNE 5 7 1007.3 - 0.0 - - 10 - - - -
20/07:00pm 29.8 NNE 7 8 1007.1 - 0.0 - - 10 - - - -
20/06:30pm 30.2 NE 7 9 1006.7 - 0.0 - - 10 - - - -
20/06:00pm 30.8 NE 8 10 1006.3 - 0.0 - - 10 - - - -
20/05:30pm 31.6 NNE 9 13 1006.6 - 0.0 - Mostly clear 10 - - - -
20/05:00pm 32.8 N 7 10 1006.6 - 0.0 - Mostly clear 10 - - - -
20/04:30pm 32.6 N 8 11 1006.2 - 0.0 - Mostly clear 10 - - - -
20/04:00pm 32.7 N 9 12 1006.1 - 0.0 - Mostly clear 10 - - - -
20/03:30pm 33.2 N 8 12 1006.3 - 0.0 - Mostly clear 10 - - - -
20/03:00pm 33.6 NNW 10 13 1006.3 F 0.0 Fine Partly cloudy 27 - - - -
20/02:30pm 33.5 N 9 13 1007.0 - 0.0 - Mostly clear 10 - - - -
20/02:00pm 33.8 NNE 8 12 1007.4 - 0.0 - Mostly clear 10 - - - -
20/01:30pm 33.2 NNE 11 14 1007.3 - 0.0 - Mostly clear 10 - - - -
20/01:00pm 33.6 N 12 16 1007.9 - 0.0 - Mostly clear 10 - - - -
20/12:30pm 33.3 N 11 14 1008.3 - 0.0 - - 10 - - - -
20/12:00pm 33.5 N 11 14 1008.2 F 0.0 Fine Mostly cloudy 25 - - - -
20/11:30am 33.6 NW 6 11 1008.7 - 0.0 - Mostly clear 10 - - - -
20/11:00am 34.3 W 7 12 1009.0 - 0.0 - Mostly clear 10 - - - -
20/10:30am 34.2 NW 7 11 1009.4 - 0.0 - Mostly clear 10 - - - -
20/10:00am 33.0 W 7 9 1010.0 - 0.0 - Mostly clear 10 - - - -
20/09:30am 32.0 NW 6 9 1010.1 - 0.0 - Mostly clear 10 - - - -
20/09:00am 31.6 W 5 9 1009.6 F 0.0 Fine Mostly cloudy 24 - - - -
20/08:30am 31.1 WNW 6 9 1010.1 - 0.0 - Mostly clear 10 - - - -
20/08:00am 30.2 W 4 6 1010.3 - 0.0 - Mostly clear 10 - - - -
20/07:30am 29.4 W 3 6 1010.3 - 0.0 - Mostly clear 10 - - - -
20/07:00am 28.9 WNW 5 6 1009.9 - 0.0 - Mostly clear 10 - - - -
20/06:30am 27.0 W 4 4 1009.4 - 0.0 - Partly cloudy 10 - - - -
20/06:00am 26.3 NW 4 6 1008.3 F 0.0 Fine Partly cloudy 26 - - - -
20/05:30am 26.4 NW 4 5 1008.2 - 0.0 - - 10 - - - -
20/05:00am 26.2 NW 4 5 1007.9 - 0.0 - - 10 - - - -
20/04:30am 25.6 NNW 4 5 1007.7 - 0.0 - - 10 - - - -
20/04:00am 25.1 CALM 0 0 1007.8 - 0.0 - - 10 - - - -
20/03:30am 25.3 CALM 0 0 1007.9 - 0.0 - - 10 - - - -
20/03:00am 25.5 CALM 0 3 1007.6 - 0.0 - - 10 - - - -
20/02:30am 26.1 CALM 0 3 1008.1 - 0.0 - - 10 - - - -
20/02:00am 27.9 N 5 6 1008.3 - 0.0 - - 10 - - - -
20/01:30am 27.9 N 5 6 1008.9 - 0.0 - - 10 - - - -
20/01:00am 28.2 N 5 6 1009.2 - 0.0 - - 10 - - - -
20/12:30am 27.4 N 2 4 1009.7 - 0.0 - - 10 - - - -
20/12:00am 28.6 N 4 5 1009.7 - 0.0 - - 10 - - - -
 
Date/Time
CST
Temp

°C
Wind Pressure Rain
since 9am
mm
Weather Cloud Vis
km
Sea
Height
m
Swell
Dir
 
Speed
knots
Gust
knots
hPa Trend Height
m
Period
s
Dir
19/11:30pm 28.7 N 4 5 1010.4 - 0.0 - - 10 - - - -
19/11:00pm 28.9 NNE 4 5 1010.9 - 0.0 - - 10 - - - -
19/10:30pm 29.2 NNE 4 6 1011.0 - 0.0 - - 10 - - - -
19/10:00pm 29.3 NE 4 5 1011.1 - 0.0 - Partly cloudy 10 - - - -
19/09:30pm 29.4 NNE 4 5 1011.1 - 0.0 - Cloudy 10 - - - -
19/09:00pm 29.3 N 3 4 1010.3 - 0.0 - Cloudy 10 - - - -
19/08:30pm 29.2 N 3 4 1010.3 - 0.0 - - 10 - - - -
19/08:00pm 29.4 NNE 4 5 1009.8 - 0.0 - - 10 - - - -
19/07:30pm 29.5 NNE 4 5 1009.4 - 0.0 - Partly cloudy 10 - - - -
19/07:00pm 29.8 N 5 6 1008.9 - 0.0 - Partly cloudy 10 - - - -
19/06:30pm 30.1 NNE 6 9 1008.5 - 0.0 - - 10 - - - -
19/06:00pm 30.5 NE 7 9 1008.1 - 0.0 - - 10 - - - -
19/05:30pm 31.2 NNE 6 10 1007.9 - 0.0 - - 10 - - - -
19/05:00pm 31.6 NNE 8 11 1007.7 - 0.0 - Mostly clear 10 - - - -
19/04:30pm 32.2 NNE 7 11 1007.7 - 0.0 - Mostly clear 10 - - - -
19/04:00pm 32.6 NNE 8 11 1007.9 - 0.0 - Mostly clear 10 - - - -
19/03:30pm 32.2 NE 10 13 1008.1 - 0.0 - Mostly clear 10 - - - -
19/03:00pm 33.3 NE 8 12 1008.1 R 0.0 Fine Mostly cloudy 24 - - - -
19/02:30pm 32.7 NNE 8 13 1008.7 - 0.0 - Mostly clear 10 - - - -
19/02:00pm 33.2 NNE 8 13 1009.1 - 0.0 - Mostly clear 10 - - - -
19/01:30pm 33.2 NNE 11 15 1009.2 - 0.0 Showers Mostly clear 10 - - - -
19/01:00pm 33.6 NNE 10 15 1009.5 - 0.0 - Mostly clear 10 - - - -
19/12:30pm 33.6 N 10 13 1009.9 - 0.0 - Mostly clear 10 - - - -
19/12:00pm 33.5 NW 8 11 1009.7 S 0.0 Fine Partly cloudy 25 - - - -
19/11:30am 33.3 NNE 9 12 1010.6 - 0.0 - Mostly clear 10 - - - -
19/11:00am 32.7 N 7 10 1010.6 - 0.0 - Mostly clear 10 - - - -
19/10:30am 32.7 N 8 12 1010.9 - 0.0 - Mostly clear 10 - - - -
19/10:00am 31.9 N 7 11 1011.0 - 0.0 - Mostly clear 10 - - - -
19/09:30am 32.0 NNW 7 11 1011.1 - 0.0 - Mostly clear 10 - - - -
19/09:00am 31.5 NW 7 11 1010.8 F 0.4 Smoke Partly cloudy 24 - - - -
19/08:30am 31.0 NNW 7 9 1011.2 - 0.4 - Mostly clear 10 - - - -
19/08:00am 29.9 NNW 7 9 1011.1 - 0.4 - Partly cloudy 10 - - - -
19/07:30am 29.3 NNW 7 10 1010.8 - 0.0 - Mostly clear 10 - - - -
19/07:00am 28.3 NNW 5 7 1010.8 - 0.0 - Mostly clear 10 - - - -
19/06:30am 27.1 NNW 5 6 1010.5 - 0.0 - Mostly clear 10 - - - -
19/06:00am 26.0 NW 2 3 1009.9 R 0.0 Fine Mostly clear 21 - - - -
19/05:30am 26.3 NNW 3 5 1010.0 - 0.0 - - 10 - - - -
19/05:00am 26.2 NNW 3 4 1009.5 - 0.0 - - 10 - - - -
19/04:30am 26.3 N 2 4 1009.2 - 0.0 - - 10 - - - -
19/04:00am 26.4 NW 4 6 1009.0 - 0.0 - - 10 - - - -
19/03:30am 25.2 CALM 0 0 1008.8 - 0.0 - - 10 - - - -
19/03:00am 25.3 CALM 0 0 1008.5 - 0.0 - - 10 - - - -
19/02:30am 25.6 CALM 0 0 1009.1 - 0.0 - - 10 - - - -
19/02:00am 25.7 CALM 0 0 1009.3 - 0.0 - - 10 - - - -
19/01:30am 25.9 CALM 0 0 1009.3 - 0.0 - - 10 - - - -
19/01:00am 26.3 N 2 3 1009.6 - 0.0 - - 10 - - - -
19/12:30am 27.9 N 4 4 1009.8 - 0.0 - - 10 - - - -
19/12:00am 28.1 NNE 5 6 1009.5 - 0.0 - - 10 - - - -
 
Date/Time
CST
Temp

°C
Wind Pressure Rain
since 9am
mm
Weather Cloud Vis
km
Sea
Height
m
Swell
Dir
 
Speed
knots
Gust
knots
hPa Trend Height
m
Period
s
Dir
18/11:30pm 28.3 N 4 5 1010.0 - 0.0 - - 10 - - - -
18/11:00pm 28.6 NNE 4 5 1010.1 - 0.0 - - 10 - - - -
18/10:30pm 28.6 NNE 4 5 1010.2 - 0.0 - - 10 - - - -
18/10:00pm 28.6 NE 4 5 1010.2 - 0.0 - Partly cloudy 10 - - - -
18/09:30pm 27.3 CALM 0 0 1010.0 - 0.0 - Partly cloudy 10 - - - -
18/09:00pm 27.5 CALM 0 0 1009.1 - 0.0 - - 10 - - - -
18/08:30pm 29.1 NE 4 5 1008.9 - 0.0 - - 10 - - - -
18/08:00pm 29.3 NNE 3 5 1008.7 - 0.0 - - 10 - - - -
18/07:30pm 29.5 NNE 5 7 1008.3 - 0.0 - - 10 - - - -
18/07:00pm 29.7 NNE 7 8 1007.8 - 0.0 - - 10 - - - -
18/06:30pm 30.2 NNE 7 10 1007.6 - 0.0 - - 10 - - - -
18/06:00pm 30.9 NNE 8 10 1007.3 - 0.0 - - 10 - - - -
18/05:30pm 31.3 NE 9 12 1007.7 - 0.0 - - 10 - - - -
18/05:00pm 32.0 NE 9 12 1007.6 - 0.0 - - 10 - - - -
18/04:30pm 32.1 NE 10 13 1007.6 - 0.0 - Mostly clear 10 - - - -
18/04:00pm 32.7 NNE 9 11 1007.7 - 0.0 - Mostly clear 10 - - - -
18/03:30pm 33.1 N 9 12 1007.8 - 0.0 - Mostly clear 10 - - - -
18/03:00pm 33.4 N 10 14 1007.7 R 0.0 Fine Mostly clear 22 - - - -
18/02:30pm 33.1 N 9 13 1008.2 - 0.0 - Mostly clear 10 - - - -
18/02:00pm 33.8 NNE 9 13 1008.6 - 0.0 - Mostly clear 10 - - - -
18/01:30pm 33.2 NNE 10 13 1008.8 - 0.0 - Mostly clear 10 - - - -
18/01:00pm 33.5 N 10 14 1009.1 - 0.0 - Mostly clear 10 - - - -
18/12:30pm 32.9 N 10 15 1009.5 - 0.0 - Mostly clear 10 - - - -
18/12:00pm 33.1 N 9 12 1009.3 R 0.0 Fine Mostly clear 25 - - - -
18/11:30am 33.0 N 8 10 1010.0 - 0.0 - Mostly clear 10 - - - -
18/11:00am 33.7 N 6 12 1010.4 - 0.0 - Mostly clear 10 - - - -
18/10:30am 32.8 NNW 7 10 1010.7 - 0.0 - Mostly clear 10 - - - -
18/10:00am 32.3 NNW 6 11 1010.6 - 0.0 - Mostly clear 10 - - - -
18/09:30am 31.3 NW 7 11 1010.6 - 0.0 - Mostly clear 10 - - - -
18/09:00am 31.5 N 7 10 1010.2 R 0.0 Fine Mostly clear 23 - - - -
18/08:30am 30.7 NNE 6 8 1010.5 - 0.0 - Mostly clear 10 - - - -
18/08:00am 30.1 N 5 8 1010.4 - 0.0 - Mostly clear 10 - - - -
18/07:30am 29.2 N 3 6 1010.3 - 0.0 - Mostly clear 10 - - - -
18/07:00am 28.4 CALM 0 0 1009.9 - 0.0 - Mostly clear 10 - - - -
18/06:30am 26.8 CALM 0 0 1009.4 - 0.0 - Mostly clear 10 - - - -
18/06:00am 25.5 CALM 0 0 1008.6 R 0.0 Fine Mostly clear 30 - - - -
18/05:30am 25.4 CALM 0 0 1008.5 - 0.0 - - 8 - - - -
18/05:00am 25.6 CALM 0 0 1007.9 - 0.0 - - 10 - - - -
18/04:30am 25.6 CALM 0 0 1007.7 - 0.0 - Partly cloudy 9 - - - -
18/04:00am 26.2 CALM 0 0 1007.6 - 0.0 - - 10 - - - -
18/03:30am 26.4 CALM 0 0 1007.5 - 0.0 - - 10 - - - -
18/03:00am 26.7 NW 2 4 1007.2 - 0.0 - Cloudy 10 - - - -
18/02:30am 26.8 NNW 1 4 1007.4 - 0.0 - - 10 - - - -

Other Formats:

Comma delimited format used in spreadsheet applications
http://www.bom.gov.au/fwo/IDD60701/IDD60701.94150.axf

JavaScript Object Notation format (JSON) in row-major order
http://www.bom.gov.au/fwo/IDD60701/IDD60701.94150.json